Ana Sayfa
METAR-TAF:

METAR-TAF

Havaalanları :

Kahramanmaraş Havalimanı

Kahramanmaraş, Türkiye

Enlem: 37-32-20N, Boylam: 036-57-12E, yükseklik: 525 m

Güncel hava durumu gözlemi

Rapor saat 15:50 UTC de 47 dakika önce yapıldı.
Sakin rüzgar
Sıcaklık 10°C
Nem 82%
Basınç 1026 hPa
Görüş mesafesi: 7000 m
3500 ft yükseklikte parçalı bulutlu
9000 ft yükseklikte parçalı çok bulutlu

METAR: LTCN 151550Z 00000KT 7000 SCT035 BKN090 10/07 Q1026 NOSIG

Saat: 19:37 (16:37 UTC)

Tahmin

Rapor saat 13:40 UTC de 2 saat ve 57 dakika önce yapıldı.
Ayın 15'si saat 15 UTC'den ayın 15'si saat 24 UTC'ye kadar geçerli Tahmin
Rüzgar değişken yönden 2 kt
Görüş mesafesi: 6000 m
3500 ft yükseklikte parçalı bulutlu
9000 ft yükseklikte parçalı çok bulutlu

TAF: LTCN 151340Z 1515/1524 VRB02KT 6000 SCT035 BKN090

4.000'den fazla havaalanı için hava durumu gözlemleri ve tahminleri (METAR ve TAF raporları).

Kullanılabilir istasyonlar harita üzerinde sarı ve kırmızı noktalarla gösterilir.

İstasyonun adını görmek için fareyi noktanın üzerinde gezdirin.

Sonrasında hava gözlem ve tahminlerini görmek için tıklayın.

Haritayı değiştirmek için: yaklaştırmak için siyah artı işaretli yeşil düğmeye ve uzaklaştırmak için de eksi işaretli düğmeye hızla tıklayın; bitişik haritalar için yeşil okları kullanın.


METAR-TAF: